Time;durP1;ratioP1;P1;durP2;ratioP2;P2;SDS_P1;SDS_P2;PMS_P1;PMS_P2;Temp;Humidity;BMP_temperature;BMP_pressure;BME280_temperature;BME280_humidity;BME280_pressure;Samples;Min_cycle;Max_cycle;Signal;HPM_P1;HPM_P2
2022/01/21 00:01:11;;;;;;;6.80;1.70;;;;;;;;;;2320892;58;21614;-75
2022/01/21 00:03:40;;;;;;;7.07;1.60;;;;;;;;;;2321456;58;21286;-77
2022/01/21 00:06:07;;;;;;;3.85;2.00;;;;;;;;;;2563091;54;21142;-76
2022/01/21 00:08:35;;;;;;;6.75;1.70;;;;;;;;;;2321717;58;21070;-78
2022/01/21 00:11:02;;;;;;;6.78;2.28;;;;;;;;;;2320244;58;21610;-77
2022/01/21 00:13:34;;;;;;;3.62;1.70;;;;;;;;;;2321409;58;21086;-75
2022/01/21 00:16:01;;;;;;;5.57;1.60;;;;;;;;;;2322271;58;21060;-76
2022/01/21 00:18:29;;;;;;;4.53;1.55;;;;;;;;;;2321530;58;21051;-77
2022/01/21 00:32:07;;;;;;;5.25;1.80;;;;;;;;;;2320842;58;21040;-78
2022/01/21 00:34:35;;;;;;;6.03;1.75;;;;;;;;;;2321652;58;21602;-76
2022/01/21 00:37:02;;;;;;;5.05;1.62;;;;;;;;;;2321392;58;21495;-77
2022/01/21 00:39:31;;;;;;;4.87;1.95;;;;;;;;;;2321110;58;21120;-77
2022/01/21 00:42:06;;;;;;;4.40;1.77;;;;;;;;;;2562379;54;21056;-75
2022/01/21 00:44:33;;;;;;;8.13;2.05;;;;;;;;;;2562920;54;21783;-78
2022/01/21 00:47:01;;;;;;;6.43;1.90;;;;;;;;;;2321257;58;21048;-77
2022/01/21 00:49:28;;;;;;;5.68;1.85;;;;;;;;;;2320496;58;21052;-77
2022/01/21 00:51:55;;;;;;;10.00;2.75;;;;;;;;;;2321752;58;21076;-76
2022/01/21 00:54:22;;;;;;;6.68;1.92;;;;;;;;;;2563156;54;21048;-78
2022/01/21 00:56:49;;;;;;;6.03;1.83;;;;;;;;;;2320983;58;21092;-77
2022/01/21 00:59:17;;;;;;;8.25;3.25;;;;;;;;;;2320856;58;21118;-78
2022/01/21 01:01:44;;;;;;;7.82;1.80;;;;;;;;;;2562775;54;21107;-78
2022/01/21 01:04:11;;;;;;;3.85;1.73;;;;;;;;;;2562931;54;21617;-76
2022/01/21 01:06:38;;;;;;;4.10;1.70;;;;;;;;;;2321368;58;21056;-77
2022/01/21 01:09:05;;;;;;;8.38;2.03;;;;;;;;;;2321181;58;21163;-76
2022/01/21 01:11:47;;;;;;;9.57;1.80;;;;;;;;;;2321105;58;21067;-76
2022/01/21 01:20:02;;;;;;;3.92;1.45;;;;;;;;;;2247162;58;21071;-77
2022/01/21 01:22:37;;;;;;;4.53;1.67;;;;;;;;;;2321800;58;21060;-78
2022/01/21 01:27:51;;;;;;;5.28;2.10;;;;;;;;;;2321657;58;20984;-79
2022/01/21 01:30:19;;;;;;;10.63;2.08;;;;;;;;;;2321126;58;21100;-79
2022/01/21 01:32:48;;;;;;;11.40;2.17;;;;;;;;;;2563950;54;21551;-79
2022/01/21 01:35:16;;;;;;;6.10;1.70;;;;;;;;;;2563433;54;21076;-79
2022/01/21 01:38:04;;;;;;;8.13;2.37;;;;;;;;;;2564327;54;21075;-77
2022/01/21 01:40:38;;;;;;;5.10;2.15;;;;;;;;;;2322319;58;21067;-80
2022/01/21 01:51:35;;;;;;;3.10;1.60;;;;;;;;;;2322372;58;21135;-79
2022/01/21 01:54:05;;;;;;;5.70;1.83;;;;;;;;;;2322758;58;21531;-79
2022/01/21 01:56:34;;;;;;;5.60;1.85;;;;;;;;;;2322193;58;21060;-77
2022/01/21 01:59:01;;;;;;;7.95;1.92;;;;;;;;;;2564048;54;21083;-80
2022/01/21 02:01:28;;;;;;;3.55;1.73;;;;;;;;;;2322020;58;21048;-79
2022/01/21 02:03:56;;;;;;;2.72;1.40;;;;;;;;;;2322727;58;21048;-78
2022/01/21 02:06:23;;;;;;;10.38;1.92;;;;;;;;;;2322327;58;21535;-79
2022/01/21 02:08:50;;;;;;;6.22;1.90;;;;;;;;;;2321420;58;21060;-76
2022/01/21 02:11:17;;;;;;;8.07;1.80;;;;;;;;;;2321340;58;21048;-76
2022/01/21 02:13:48;;;;;;;10.77;2.40;;;;;;;;;;2563759;54;21131;-77
2022/01/21 02:16:31;;;;;;;8.45;2.00;;;;;;;;;;2322336;58;21084;-77
2022/01/21 02:21:46;;;;;;;3.72;1.60;;;;;;;;;;2322110;58;20075;-78
2022/01/21 02:24:17;;;;;;;6.12;2.10;;;;;;;;;;2563885;54;21135;-77
2022/01/21 02:26:44;;;;;;;12.10;2.53;;;;;;;;;;2563620;54;21056;-77
2022/01/21 02:29:12;;;;;;;10.07;2.55;;;;;;;;;;2321518;58;21146;-78
2022/01/21 02:31:40;;;;;;;7.37;2.42;;;;;;;;;;2563540;54;21116;-76
2022/01/21 02:34:09;;;;;;;13.73;3.05;;;;;;;;;;2562410;54;21059;-76
2022/01/21 02:36:36;;;;;;;11.63;2.30;;;;;;;;;;2321459;58;21569;-77
2022/01/21 02:39:03;;;;;;;10.10;2.15;;;;;;;;;;2321098;58;21091;-77
2022/01/21 02:41:31;;;;;;;7.18;2.55;;;;;;;;;;2321835;58;21120;-76
2022/01/21 02:43:58;;;;;;;33.53;7.10;;;;;;;;;;2321493;58;21048;-77
2022/01/21 02:46:26;;;;;;;7.95;2.30;;;;;;;;;;2322232;58;21060;-78
2022/01/21 02:48:54;;;;;;;8.60;2.10;;;;;;;;;;2563143;54;21449;-79
2022/01/21 02:51:21;;;;;;;9.13;2.55;;;;;;;;;;2321400;58;21076;-78
2022/01/21 02:54:04;;;;;;;5.85;2.05;;;;;;;;;;2322598;58;21148;-80
2022/01/21 02:56:32;;;;;;;14.32;3.55;;;;;;;;;;2562810;54;21056;-77
2022/01/21 02:58:59;;;;;;;9.00;3.22;;;;;;;;;;2321144;58;21120;-78
2022/01/21 03:01:26;;;;;;;5.53;2.20;;;;;;;;;;2563209;54;21107;-77
2022/01/21 03:03:54;;;;;;;11.52;2.40;;;;;;;;;;2321076;58;21090;-76
2022/01/21 03:06:23;;;;;;;5.05;2.28;;;;;;;;;;2321322;58;21104;-75
2022/01/21 03:08:52;;;;;;;8.77;2.30;;;;;;;;;;2320793;58;21562;-77
2022/01/21 03:11:20;;;;;;;9.90;2.42;;;;;;;;;;2321230;58;21059;-78
2022/01/21 03:13:47;;;;;;;11.05;2.65;;;;;;;;;;2562686;54;21698;-77
2022/01/21 03:16:14;;;;;;;13.95;2.75;;;;;;;;;;2321254;58;21068;-75
2022/01/21 03:18:42;;;;;;;12.00;2.45;;;;;;;;;;2563141;54;21049;-76
2022/01/21 03:21:15;;;;;;;8.55;2.80;;;;;;;;;;2563379;54;21131;-77
2022/01/21 03:23:41;;;;;;;;;;;;;;;;;;2324285;58;21068;-77
2022/01/21 03:26:08;;;;;;;9.68;2.25;;;;;;;;;;2563296;54;20848;-77
2022/01/21 03:28:36;;;;;;;12.45;2.12;;;;;;;;;;2562926;54;21132;-77
2022/01/21 03:31:03;;;;;;;12.73;2.37;;;;;;;;;;2562447;54;21057;-77
2022/01/21 03:33:31;;;;;;;20.65;3.03;;;;;;;;;;2562810;54;21183;-76
2022/01/21 03:35:58;;;;;;;9.30;2.78;;;;;;;;;;2321284;58;21068;-77
2022/01/21 03:38:27;;;;;;;9.63;2.62;;;;;;;;;;2320868;58;21095;-78
2022/01/21 03:40:54;;;;;;;19.73;3.05;;;;;;;;;;2321043;58;21080;-77
2022/01/21 03:43:22;;;;;;;6.40;2.22;;;;;;;;;;2321095;58;21122;-78
2022/01/21 03:45:50;;;;;;;18.60;3.90;;;;;;;;;;2563023;54;21052;-77
2022/01/21 03:48:17;;;;;;;14.75;2.70;;;;;;;;;;2320758;58;21365;-77
2022/01/21 03:50:44;;;;;;;7.20;3.05;;;;;;;;;;2320478;58;21055;-76
2022/01/21 03:53:12;;;;;;;17.37;3.75;;;;;;;;;;2562548;54;21131;-78
2022/01/21 03:55:39;;;;;;;12.60;2.87;;;;;;;;;;2321480;58;21068;-77
2022/01/21 03:58:07;;;;;;;13.93;2.78;;;;;;;;;;2320693;58;21060;-76
2022/01/21 04:00:36;;;;;;;13.90;3.65;;;;;;;;;;2562656;54;21100;-77
2022/01/21 04:03:03;;;;;;;13.35;2.50;;;;;;;;;;2562527;54;21582;-75
2022/01/21 04:05:31;;;;;;;10.93;2.62;;;;;;;;;;2321247;58;21060;-77
2022/01/21 04:07:58;;;;;;;14.00;2.40;;;;;;;;;;2321308;58;21654;-75
2022/01/21 04:10:25;;;;;;;12.55;2.87;;;;;;;;;;2321079;58;22098;-76
2022/01/21 04:12:52;;;;;;;15.07;2.67;;;;;;;;;;2321661;58;21112;-77
2022/01/21 04:15:20;;;;;;;14.82;2.20;;;;;;;;;;2563150;54;21064;-75
2022/01/21 04:17:47;;;;;;;15.10;2.58;;;;;;;;;;2321459;58;21207;-78
2022/01/21 04:20:16;;;;;;;9.07;2.90;;;;;;;;;;2320709;58;21072;-76
2022/01/21 04:22:44;;;;;;;16.15;2.35;;;;;;;;;;2321411;58;21111;-78
2022/01/21 04:25:11;;;;;;;8.18;2.25;;;;;;;;;;2320870;58;21131;-77
2022/01/21 04:27:39;;;;;;;13.85;3.50;;;;;;;;;;2562784;54;21068;-77
2022/01/21 04:30:08;;;;;;;19.02;2.67;;;;;;;;;;2562553;54;21103;-78
2022/01/21 04:32:35;;;;;;;9.13;2.50;;;;;;;;;;2561660;54;21048;-75
2022/01/21 04:35:03;;;;;;;16.50;3.25;;;;;;;;;;2561906;54;21045;-77
2022/01/21 04:37:30;;;;;;;21.30;2.78;;;;;;;;;;2321032;58;21072;-77
2022/01/21 04:40:03;;;;;;;10.25;2.40;;;;;;;;;;2320536;58;21048;-77
2022/01/21 04:48:02;;;;;;;7.25;2.25;;;;;;;;;;2286480;59;20998;-81
2022/01/21 04:50:38;;;;;;;12.40;2.95;;;;;;;;;;2286861;59;21054;-81
2022/01/21 04:53:06;;;;;;;8.98;2.20;;;;;;;;;;2521290;54;21113;-81
2022/01/21 04:55:33;;;;;;;29.23;3.65;;;;;;;;;;2521203;54;21614;-81
2022/01/21 04:58:00;;;;;;;13.60;2.90;;;;;;;;;;2286692;59;21147;-81
2022/01/21 05:00:27;;;;;;;6.40;1.92;;;;;;;;;;2287183;59;21133;-81
2022/01/21 05:02:56;;;;;;;18.98;3.03;;;;;;;;;;2286997;59;21145;-81
2022/01/21 05:05:23;;;;;;;8.57;2.92;;;;;;;;;;2520951;54;21102;-80
2022/01/21 05:07:51;;;;;;;19.92;2.97;;;;;;;;;;2287434;59;21790;-81
2022/01/21 05:10:18;;;;;;;22.73;3.15;;;;;;;;;;2287319;59;21113;-81
2022/01/21 05:12:45;;;;;;;15.50;2.58;;;;;;;;;;2287270;59;21077;-81
2022/01/21 05:15:19;;;;;;;10.07;2.65;;;;;;;;;;2287102;59;21570;-82
2022/01/21 05:17:49;;;;;;;16.02;2.95;;;;;;;;;;2287279;59;21082;-81
2022/01/21 05:20:17;;;;;;;12.88;2.72;;;;;;;;;;2287212;59;21058;-80
2022/01/21 05:22:44;;;;;;;11.40;2.67;;;;;;;;;;2287163;59;21158;-80
2022/01/21 05:25:16;;;;;;;14.15;3.90;;;;;;;;;;2520749;55;21171;-80
2022/01/21 05:27:48;;;;;;;16.37;3.05;;;;;;;;;;2287496;59;21102;-80
2022/01/21 05:30:16;;;;;;;20.05;3.55;;;;;;;;;;2286349;59;21133;-80
2022/01/21 05:32:43;;;;;;;14.93;3.40;;;;;;;;;;2285603;59;21064;-81
2022/01/21 05:35:11;;;;;;;19.05;2.60;;;;;;;;;;2285066;59;21138;-81
2022/01/21 05:37:38;;;;;;;21.25;3.53;;;;;;;;;;2285453;59;21066;-81
2022/01/21 05:40:07;;;;;;;6.25;2.08;;;;;;;;;;2286045;59;21078;-81
2022/01/21 05:42:36;;;;;;;11.20;2.30;;;;;;;;;;2286336;59;21085;-81
2022/01/21 05:47:50;;;;;;;7.75;2.10;;;;;;;;;;2286757;59;21477;-81
2022/01/21 05:50:17;;;;;;;16.87;3.33;;;;;;;;;;2286761;59;21118;-82
2022/01/21 05:52:46;;;;;;;9.48;2.12;;;;;;;;;;2287018;59;21129;-83
2022/01/21 05:55:13;;;;;;;13.52;2.87;;;;;;;;;;2287123;59;21038;-83
2022/01/21 05:57:41;;;;;;;11.15;2.70;;;;;;;;;;2520323;54;21542;-82
2022/01/21 06:00:09;;;;;;;10.27;2.67;;;;;;;;;;2520071;54;21117;-83
2022/01/21 06:02:37;;;;;;;10.52;2.20;;;;;;;;;;2287147;59;21142;-80
2022/01/21 06:05:05;;;;;;;10.98;3.25;;;;;;;;;;2520196;55;21043;-80
2022/01/21 06:07:33;;;;;;;13.77;3.28;;;;;;;;;;2287753;59;21117;-83
2022/01/21 06:10:00;;;;;;;11.35;2.85;;;;;;;;;;2286978;59;21056;-83
2022/01/21 06:12:27;;;;;;;9.25;2.42;;;;;;;;;;2520642;54;21106;-82
2022/01/21 06:14:54;;;;;;;7.35;2.03;;;;;;;;;;2287167;59;21061;-81
2022/01/21 06:17:21;;;;;;;13.18;2.33;;;;;;;;;;2286988;59;21118;-82
2022/01/21 06:19:50;;;;;;;12.50;2.58;;;;;;;;;;2287194;59;21117;-82
2022/01/21 06:22:17;;;;;;;6.97;2.92;;;;;;;;;;2521158;54;21134;-81
2022/01/21 06:24:44;;;;;;;13.60;2.53;;;;;;;;;;2286910;59;21063;-81
2022/01/21 06:27:12;;;;;;;8.85;2.58;;;;;;;;;;2287427;59;22148;-82
2022/01/21 06:29:39;;;;;;;16.05;2.33;;;;;;;;;;2286860;59;21150;-82
2022/01/21 06:32:07;;;;;;;9.05;2.22;;;;;;;;;;2520795;54;21142;-82
2022/01/21 06:34:34;;;;;;;14.10;2.53;;;;;;;;;;2287011;59;21665;-81
2022/01/21 06:37:01;;;;;;;13.55;2.17;;;;;;;;;;2520848;55;21110;-81
2022/01/21 06:39:28;;;;;;;6.95;2.33;;;;;;;;;;2520658;54;21158;-82
2022/01/21 06:41:55;;;;;;;9.88;2.40;;;;;;;;;;2520754;54;21212;-81
2022/01/21 06:44:22;;;;;;;18.90;2.80;;;;;;;;;;2286941;59;21105;-82
2022/01/21 06:46:49;;;;;;;8.32;2.28;;;;;;;;;;2287418;59;21109;-81
2022/01/21 06:49:17;;;;;;;12.75;2.55;;;;;;;;;;2286876;59;21066;-82
2022/01/21 06:51:44;;;;;;;9.40;1.90;;;;;;;;;;2287679;59;21126;-82
2022/01/21 06:54:12;;;;;;;14.00;2.22;;;;;;;;;;2287224;59;21170;-82
2022/01/21 06:56:39;;;;;;;12.57;1.92;;;;;;;;;;2520731;54;21172;-82
2022/01/21 06:59:06;;;;;;;12.35;2.72;;;;;;;;;;2287062;59;21642;-82
2022/01/21 07:01:34;;;;;;;8.15;2.20;;;;;;;;;;2520912;55;21718;-82
2022/01/21 07:04:01;;;;;;;12.75;2.50;;;;;;;;;;2286979;59;21126;-82
2022/01/21 07:06:28;;;;;;;8.70;2.00;;;;;;;;;;2286401;59;22175;-82
2022/01/21 07:08:55;;;;;;;11.98;3.08;;;;;;;;;;2520718;54;21566;-82
2022/01/21 07:11:22;;;;;;;8.45;1.85;;;;;;;;;;2520694;55;21113;-82
2022/01/21 07:13:50;;;;;;;15.13;2.22;;;;;;;;;;2287147;59;21058;-83
2022/01/21 07:16:17;;;;;;;12.05;2.67;;;;;;;;;;2520605;54;21114;-82
2022/01/21 07:18:44;;;;;;;11.85;2.25;;;;;;;;;;2287151;59;21121;-80
2022/01/21 07:21:11;;;;;;;12.30;2.22;;;;;;;;;;2287189;59;21134;-82
2022/01/21 07:23:38;;;;;;;7.07;2.22;;;;;;;;;;2286959;59;21070;-81
2022/01/21 07:26:06;;;;;;;9.02;1.70;;;;;;;;;;2286691;59;21392;-82
2022/01/21 07:28:34;;;;;;;13.00;2.87;;;;;;;;;;2520753;55;21122;-81
2022/01/21 07:31:01;;;;;;;10.07;2.17;;;;;;;;;;2520343;54;21048;-81
2022/01/21 07:33:28;;;;;;;7.35;1.92;;;;;;;;;;2286865;59;21101;-81
2022/01/21 07:35:56;;;;;;;11.68;2.85;;;;;;;;;;2286893;59;21062;-81
2022/01/21 07:38:23;;;;;;;10.07;2.50;;;;;;;;;;2286845;59;21074;-82
2022/01/21 07:40:51;;;;;;;10.32;2.40;;;;;;;;;;2286767;59;21042;-81
2022/01/21 07:43:18;;;;;;;7.50;2.62;;;;;;;;;;2287035;59;21137;-82
2022/01/21 07:45:45;;;;;;;10.23;2.87;;;;;;;;;;2520605;54;21062;-81
2022/01/21 07:48:12;;;;;;;8.85;2.53;;;;;;;;;;2520566;54;21118;-81
2022/01/21 07:50:39;;;;;;;7.75;3.85;;;;;;;;;;2286844;59;21081;-81
2022/01/21 07:53:06;;;;;;;6.82;2.17;;;;;;;;;;2286843;59;21076;-81
2022/01/21 07:55:34;;;;;;;12.82;2.35;;;;;;;;;;2286780;59;21630;-81
2022/01/21 07:58:01;;;;;;;8.23;2.72;;;;;;;;;;2520609;54;21702;-80
2022/01/21 08:00:28;;;;;;;8.45;3.20;;;;;;;;;;2286751;59;21649;-81
2022/01/21 08:02:55;;;;;;;9.65;2.50;;;;;;;;;;2285901;59;21121;-81
2022/01/21 08:05:22;;;;;;;10.10;2.05;;;;;;;;;;2520035;54;21057;-81
2022/01/21 08:07:49;;;;;;;9.40;2.60;;;;;;;;;;2287062;59;21058;-81
2022/01/21 08:10:16;;;;;;;10.07;2.33;;;;;;;;;;2520105;54;21065;-80
2022/01/21 08:12:42;;;;;;;9.40;2.72;;;;;;;;;;2286674;59;21070;-81
2022/01/21 08:15:10;;;;;;;4.45;1.90;;;;;;;;;;2286661;59;21050;-80
2022/01/21 08:17:37;;;;;;;8.35;1.92;;;;;;;;;;2286113;59;21641;-81
2022/01/21 08:20:05;;;;;;;7.10;2.08;;;;;;;;;;2520403;54;21105;-81
2022/01/21 08:22:32;;;;;;;4.72;1.85;;;;;;;;;;2286959;59;21112;-81
2022/01/21 08:24:59;;;;;;;8.00;1.67;;;;;;;;;;2285280;59;21089;-81
2022/01/21 08:27:26;;;;;;;9.55;1.65;;;;;;;;;;2286623;59;21146;-80
2022/01/21 08:29:53;;;;;;;6.70;1.90;;;;;;;;;;2285563;59;21102;-81
2022/01/21 08:32:20;;;;;;;11.15;2.30;;;;;;;;;;2287079;59;21089;-81
2022/01/21 08:34:49;;;;;;;10.93;1.83;;;;;;;;;;2520798;54;21053;-80
2022/01/21 08:37:16;;;;;;;8.13;1.95;;;;;;;;;;2520938;54;21126;-81
2022/01/21 08:39:43;;;;;;;9.35;2.20;;;;;;;;;;2520500;55;21086;-81
2022/01/21 08:42:10;;;;;;;6.70;2.47;;;;;;;;;;2286817;59;21594;-81
2022/01/21 08:44:38;;;;;;;10.32;1.80;;;;;;;;;;2286795;59;21046;-81
2022/01/21 08:47:05;;;;;;;5.53;1.83;;;;;;;;;;2287411;59;21066;-79
2022/01/21 08:49:33;;;;;;;6.18;3.37;;;;;;;;;;2519735;54;21082;-83
2022/01/21 08:52:00;;;;;;;6.30;2.20;;;;;;;;;;2521133;54;21607;-80
2022/01/21 08:54:28;;;;;;;11.20;1.90;;;;;;;;;;2287068;59;21062;-81
2022/01/21 08:56:56;;;;;;;5.60;1.62;;;;;;;;;;2286849;59;21114;-80
2022/01/21 08:59:26;;;;;;;4.30;1.70;;;;;;;;;;2286908;59;21042;-81
2022/01/21 09:01:54;;;;;;;8.07;1.92;;;;;;;;;;2286552;59;21086;-80
2022/01/21 09:04:21;;;;;;;4.03;1.80;;;;;;;;;;2286299;59;21063;-80
2022/01/21 09:06:48;;;;;;;4.28;2.15;;;;;;;;;;2287188;59;21154;-81
2022/01/21 09:09:15;;;;;;;11.07;1.90;;;;;;;;;;2520514;54;21114;-80
2022/01/21 09:11:42;;;;;;;9.00;1.80;;;;;;;;;;2286714;59;21058;-81
2022/01/21 09:14:09;;;;;;;4.22;1.75;;;;;;;;;;2520630;54;21050;-80
2022/01/21 09:16:36;;;;;;;9.23;1.98;;;;;;;;;;2287114;59;21130;-80
2022/01/21 09:19:04;;;;;;;5.00;1.60;;;;;;;;;;2287051;59;21141;-80
2022/01/21 09:21:33;;;;;;;4.40;1.58;;;;;;;;;;2520769;54;21066;-81
2022/01/21 09:24:00;;;;;;;6.53;1.62;;;;;;;;;;2286884;59;21138;-80
2022/01/21 09:26:27;;;;;;;6.10;2.75;;;;;;;;;;2520746;54;21565;-81
2022/01/21 09:31:29;;;;;;;9.02;2.17;;;;;;;;;;2336116;57;27857;-77
2022/01/21 09:33:56;;;;;;;5.43;2.00;;;;;;;;;;2595887;53;21068;-78
2022/01/21 09:36:23;;;;;;;6.45;1.83;;;;;;;;;;2348548;57;21057;-77
2022/01/21 09:38:50;;;;;;;3.62;1.45;;;;;;;;;;2348315;57;21081;-77
2022/01/21 09:41:18;;;;;;;8.48;2.15;;;;;;;;;;2374585;56;21035;-78
2022/01/21 09:46:27;;;;;;;4.72;2.00;;;;;;;;;;2301259;58;22102;-76
2022/01/21 09:49:06;;;;;;;5.35;1.60;;;;;;;;;;2561537;53;21036;-79
2022/01/21 09:51:33;;;;;;;4.55;1.70;;;;;;;;;;2294282;58;21055;-78
2022/01/21 09:54:01;;;;;;;5.87;1.73;;;;;;;;;;2529691;55;21031;-78
2022/01/21 09:56:30;;;;;;;10.73;1.95;;;;;;;;;;2293442;58;21046;-79
2022/01/21 09:58:59;;;;;;;5.60;1.75;;;;;;;;;;2293517;58;21533;-78
2022/01/21 10:01:27;;;;;;;4.55;1.48;;;;;;;;;;2529498;55;21079;-78
2022/01/21 10:03:54;;;;;;;4.35;1.60;;;;;;;;;;2293521;58;21620;-77
2022/01/21 10:06:23;;;;;;;6.95;1.77;;;;;;;;;;2529229;55;22178;-78
2022/01/21 10:08:51;;;;;;;4.28;1.65;;;;;;;;;;2527784;55;21067;-77
2022/01/21 10:11:20;;;;;;;6.53;1.80;;;;;;;;;;2529233;54;21557;-76
2022/01/21 10:13:48;;;;;;;8.77;2.58;;;;;;;;;;2529031;55;21051;-77
2022/01/21 10:16:15;;;;;;;5.68;3.15;;;;;;;;;;2294022;58;21051;-80
2022/01/21 10:18:59;;;;;;;3.90;1.33;;;;;;;;;;2293563;58;21114;-76
2022/01/21 10:21:29;;;;;;;7.80;2.05;;;;;;;;;;2292650;58;21050;-78
2022/01/21 10:24:04;;;;;;;9.20;1.70;;;;;;;;;;2529281;54;21035;-78
2022/01/21 10:26:31;;;;;;;6.65;1.27;;;;;;;;;;2529231;54;22101;-78
2022/01/21 10:28:58;;;;;;;7.15;1.52;;;;;;;;;;2293354;58;21126;-78
2022/01/21 10:31:27;;;;;;;10.95;2.03;;;;;;;;;;2292686;58;21066;-78
2022/01/21 10:33:56;;;;;;;4.05;1.35;;;;;;;;;;2293835;58;21537;-78
2022/01/21 10:36:26;;;;;;;7.18;1.42;;;;;;;;;;2529278;55;21167;-78
2022/01/21 10:38:57;;;;;;;7.28;1.40;;;;;;;;;;2528792;54;21035;-79
2022/01/21 10:41:30;;;;;;;6.10;1.30;;;;;;;;;;2529043;54;21058;-76
2022/01/21 10:44:05;;;;;;;2.92;1.37;;;;;;;;;;2529161;55;21632;-78
2022/01/21 10:46:32;;;;;;;5.82;1.60;;;;;;;;;;2294057;58;21609;-78
2022/01/21 10:49:03;;;;;;;7.80;2.03;;;;;;;;;;2293537;58;21067;-77
2022/01/21 10:51:32;;;;;;;7.40;2.78;;;;;;;;;;2293798;58;21111;-76
2022/01/21 10:54:11;;;;;;;8.20;1.77;;;;;;;;;;2528955;55;21126;-77
2022/01/21 10:56:38;;;;;;;6.78;1.58;;;;;;;;;;2293357;58;21055;-78
2022/01/21 10:59:05;;;;;;;8.75;1.60;;;;;;;;;;2292433;58;21058;-77
2022/01/21 11:01:32;;;;;;;6.95;1.77;;;;;;;;;;2528173;55;21677;-78
2022/01/21 11:04:01;;;;;;;5.72;1.58;;;;;;;;;;2527974;54;21067;-79
2022/01/21 11:06:36;;;;;;;4.57;1.75;;;;;;;;;;2292923;58;21122;-77
2022/01/21 11:09:15;;;;;;;7.80;1.62;;;;;;;;;;2292648;58;21389;-75
2022/01/21 11:11:42;;;;;;;6.57;2.00;;;;;;;;;;2528176;55;21271;-75
2022/01/21 11:14:12;;;;;;;4.45;1.45;;;;;;;;;;2292719;58;21181;-78
2022/01/21 11:16:43;;;;;;;6.68;1.70;;;;;;;;;;2292611;58;21049;-77
2022/01/21 11:19:12;;;;;;;6.30;1.70;;;;;;;;;;2292459;58;21070;-77
2022/01/21 11:21:40;;;;;;;5.80;1.52;;;;;;;;;;2292691;58;21127;-77
2022/01/21 11:24:08;;;;;;;8.45;1.85;;;;;;;;;;2292545;58;21067;-78
2022/01/21 11:26:35;;;;;;;5.07;1.45;;;;;;;;;;2528230;55;21058;-76
2022/01/21 11:29:02;;;;;;;2.97;1.27;;;;;;;;;;2527564;54;21118;-78
2022/01/21 11:31:30;;;;;;;13.27;2.00;;;;;;;;;;2527911;55;21075;-77
2022/01/21 11:33:57;;;;;;;7.50;1.50;;;;;;;;;;2527836;55;21058;-77
2022/01/21 11:36:25;;;;;;;6.03;1.90;;;;;;;;;;2292970;58;21071;-78
2022/01/21 11:38:55;;;;;;;6.57;1.55;;;;;;;;;;2527496;55;21066;-78
2022/01/21 11:41:24;;;;;;;9.38;2.50;;;;;;;;;;2292499;58;21051;-78
2022/01/21 11:43:53;;;;;;;5.57;1.42;;;;;;;;;;2527520;55;21046;-78
2022/01/21 11:46:37;;;;;;;4.78;1.40;;;;;;;;;;2292585;58;21135;-75
2022/01/21 11:49:09;;;;;;;6.65;2.00;;;;;;;;;;2292651;58;21071;-77
2022/01/21 11:51:37;;;;;;;11.80;1.80;;;;;;;;;;2292133;58;21645;-78
2022/01/21 11:54:05;;;;;;;4.72;1.95;;;;;;;;;;2292041;58;21050;-76
2022/01/21 11:56:37;;;;;;;7.35;2.20;;;;;;;;;;2292114;58;21439;-78
2022/01/21 11:59:08;;;;;;;9.63;2.45;;;;;;;;;;2527288;54;21058;-76
2022/01/21 12:01:39;;;;;;;15.10;2.30;;;;;;;;;;2292539;58;21145;-78
2022/01/21 12:04:06;;;;;;;13.90;2.60;;;;;;;;;;2527448;55;21103;-78
2022/01/21 12:06:34;;;;;;;16.12;4.90;;;;;;;;;;2292588;58;21066;-77
2022/01/21 12:09:03;;;;;;;16.12;4.05;;;;;;;;;;2292205;58;21110;-77
2022/01/21 12:11:31;;;;;;;15.45;4.15;;;;;;;;;;2527569;54;21122;-78
2022/01/21 12:13:59;;;;;;;18.92;3.28;;;;;;;;;;2527515;55;21039;-77
2022/01/21 12:16:49;;;;;;;9.82;3.00;;;;;;;;;;2527522;55;21146;-77
2022/01/21 12:19:27;;;;;;;16.60;3.20;;;;;;;;;;2526991;54;21058;-77
2022/01/21 12:21:55;;;;;;;11.55;2.70;;;;;;;;;;2527529;55;21090;-78
2022/01/21 12:24:39;;;;;;;8.05;2.28;;;;;;;;;;2292246;58;21131;-78
2022/01/21 12:27:09;;;;;;;19.95;5.15;;;;;;;;;;2292803;58;21100;-78
2022/01/21 12:29:36;;;;;;;17.95;2.80;;;;;;;;;;2527738;54;21138;-78
2022/01/21 12:32:12;;;;;;;9.05;2.00;;;;;;;;;;2527892;55;21078;-78
2022/01/21 12:34:57;;;;;;;11.30;2.70;;;;;;;;;;2527969;55;21078;-79
2022/01/21 12:37:36;;;;;;;8.32;1.98;;;;;;;;;;2527877;55;21124;-79
2022/01/21 12:40:05;;;;;;;9.80;2.37;;;;;;;;;;2527770;54;21130;-76
2022/01/21 12:42:35;;;;;;;12.60;2.62;;;;;;;;;;2527629;55;21082;-77
2022/01/21 12:45:21;;;;;;;12.32;2.42;;;;;;;;;;2293236;58;21138;-79
2022/01/21 12:47:49;;;;;;;11.88;2.17;;;;;;;;;;2292845;58;21066;-78
2022/01/21 12:50:26;;;;;;;12.18;3.47;;;;;;;;;;2527492;54;21182;-78
2022/01/21 12:53:06;;;;;;;9.88;2.20;;;;;;;;;;2292756;58;21149;-78
2022/01/21 12:58:21;;;;;;;21.50;4.75;;;;;;;;;;2291987;58;21513;-76
2022/01/21 13:00:48;;;;;;;13.35;3.58;;;;;;;;;;2291571;58;21118;-78
2022/01/21 13:03:20;;;;;;;8.65;2.05;;;;;;;;;;2527818;54;21199;-76
2022/01/21 13:05:54;;;;;;;8.13;2.17;;;;;;;;;;2292802;58;21585;-78
2022/01/21 13:08:34;;;;;;;8.45;2.22;;;;;;;;;;2527955;55;21896;-78
2022/01/21 13:11:11;;;;;;;18.92;2.62;;;;;;;;;;2527246;54;21107;-77
2022/01/21 13:13:49;;;;;;;11.18;2.30;;;;;;;;;;2293297;58;21055;-78
2022/01/21 13:16:24;;;;;;;12.52;2.22;;;;;;;;;;2293354;58;21134;-78
2022/01/21 13:18:58;;;;;;;10.82;2.45;;;;;;;;;;2527595;55;21094;-76
2022/01/21 13:21:25;;;;;;;16.65;2.70;;;;;;;;;;2527234;54;21625;-78
2022/01/21 13:23:56;;;;;;;15.63;2.72;;;;;;;;;;2292308;58;21050;-77
2022/01/21 13:26:25;;;;;;;10.15;2.20;;;;;;;;;;2527620;55;21081;-77
2022/01/21 13:28:56;;;;;;;14.05;2.47;;;;;;;;;;2291868;58;21063;-77
2022/01/21 13:31:24;;;;;;;16.40;2.90;;;;;;;;;;2292608;58;21091;-77
2022/01/21 13:33:51;;;;;;;15.55;2.17;;;;;;;;;;2292387;58;21642;-77
2022/01/21 13:36:36;;;;;;;8.30;2.40;;;;;;;;;;2291067;58;21058;-77
2022/01/21 13:39:10;;;;;;;12.75;2.37;;;;;;;;;;2526854;54;21059;-76
2022/01/21 13:41:47;;;;;;;14.35;3.30;;;;;;;;;;2292233;58;21106;-76
2022/01/21 13:44:23;;;;;;;12.02;2.42;;;;;;;;;;2292215;58;21534;-77
2022/01/21 13:46:50;;;;;;;8.27;1.90;;;;;;;;;;2527198;55;21577;-75
2022/01/21 13:49:20;;;;;;;10.80;2.55;;;;;;;;;;2527021;54;21133;-77
2022/01/21 13:51:53;;;;;;;11.63;2.20;;;;;;;;;;2292258;58;21400;-75
2022/01/21 13:54:28;;;;;;;19.57;3.27;;;;;;;;;;2527375;55;21637;-76
2022/01/21 13:56:55;;;;;;;14.35;2.55;;;;;;;;;;2292514;58;21527;-77
2022/01/21 13:59:22;;;;;;;14.80;2.65;;;;;;;;;;2291792;58;21086;-77
2022/01/21 14:01:49;;;;;;;15.43;2.67;;;;;;;;;;2527462;54;21663;-76
2022/01/21 14:04:16;;;;;;;14.77;2.97;;;;;;;;;;2291263;58;21118;-77
2022/01/21 14:06:43;;;;;;;17.40;3.45;;;;;;;;;;2527557;55;21127;-77
2022/01/21 14:09:10;;;;;;;15.13;2.30;;;;;;;;;;2291756;58;21110;-77
2022/01/21 14:11:42;;;;;;;12.75;2.05;;;;;;;;;;2291557;58;21151;-75
2022/01/21 14:14:10;;;;;;;15.90;2.15;;;;;;;;;;2292474;58;21150;-76
2022/01/21 14:16:39;;;;;;;7.40;2.37;;;;;;;;;;2526406;55;21035;-75
2022/01/21 14:19:10;;;;;;;9.30;2.35;;;;;;;;;;2527049;53;21055;-77
2022/01/21 14:21:37;;;;;;;19.40;2.53;;;;;;;;;;2292084;58;21110;-79
2022/01/21 14:24:09;;;;;;;18.65;3.12;;;;;;;;;;2290916;58;21541;-80
2022/01/21 14:29:16;;;;;;;9.95;2.80;;;;;;;;;;2600103;53;22652;-79
2022/01/21 14:31:44;;;;;;;10.48;2.30;;;;;;;;;;2595906;53;21045;-78
2022/01/21 14:34:23;;;;;;;12.93;3.20;;;;;;;;;;2348332;57;21050;-79
2022/01/21 14:37:01;;;;;;;11.50;2.25;;;;;;;;;;2595851;53;21040;-79
2022/01/21 14:39:28;;;;;;;9.88;2.95;;;;;;;;;;2595577;52;21049;-80
2022/01/21 14:41:56;;;;;;;15.95;5.22;;;;;;;;;;2348796;57;21053;-80
2022/01/21 14:44:36;;;;;;;10.80;2.35;;;;;;;;;;2348663;57;21600;-79
2022/01/21 14:47:11;;;;;;;15.75;3.70;;;;;;;;;;2595718;53;21109;-78
2022/01/21 14:49:38;;;;;;;8.20;2.35;;;;;;;;;;2347793;57;21105;-79
2022/01/21 14:54:54;;;;;;;11.23;2.58;;;;;;;;;;2348465;57;21041;-78
2022/01/21 14:57:28;;;;;;;16.30;3.17;;;;;;;;;;2348568;57;21627;-80
2022/01/21 14:59:56;;;;;;;17.55;2.42;;;;;;;;;;2347585;57;21040;-80
2022/01/21 15:02:27;;;;;;;16.83;3.08;;;;;;;;;;2345731;57;21114;-79
2022/01/21 15:04:55;;;;;;;11.12;2.45;;;;;;;;;;2347538;57;21074;-78
2022/01/21 15:07:25;;;;;;;11.00;2.80;;;;;;;;;;2346370;57;21172;-77
2022/01/21 15:09:54;;;;;;;13.52;2.72;;;;;;;;;;2595033;52;21077;-78
2022/01/21 15:15:31;;;;;;;10.80;2.20;;;;;;;;;;2347672;57;21029;-79
2022/01/21 15:17:59;;;;;;;15.23;2.45;;;;;;;;;;2345936;57;21046;-83
2022/01/21 15:20:32;;;;;;;10.68;2.28;;;;;;;;;;2592878;52;21057;-80
2022/01/21 15:22:59;;;;;;;9.70;2.60;;;;;;;;;;2595606;53;21109;-79
2022/01/21 15:25:26;;;;;;;13.93;3.28;;;;;;;;;;2347636;57;21055;-80
2022/01/21 15:27:53;;;;;;;9.70;2.45;;;;;;;;;;2346894;57;21779;-77
2022/01/21 15:30:22;;;;;;;18.10;3.15;;;;;;;;;;2349004;57;21061;-77
2022/01/21 15:32:49;;;;;;;15.00;3.75;;;;;;;;;;2595661;52;21544;-78
2022/01/21 15:35:16;;;;;;;15.93;3.40;;;;;;;;;;2348079;57;21096;-79
2022/01/21 15:37:43;;;;;;;15.52;2.62;;;;;;;;;;2594065;53;21026;-81
2022/01/21 15:40:11;;;;;;;13.82;3.40;;;;;;;;;;2347173;57;21053;-78
2022/01/21 15:42:41;;;;;;;20.05;3.53;;;;;;;;;;2346016;57;21056;-78
2022/01/21 15:45:11;;;;;;;12.00;2.60;;;;;;;;;;2592777;53;21045;-75